createdAt,value
2019-04-22T00:02:22.595Z,8.28
2019-04-22T00:04:55.114Z,8.33
2019-04-22T00:07:40.315Z,8.45
2019-04-22T00:10:03.369Z,8.53
2019-04-22T00:12:22.289Z,9.05
2019-04-22T00:14:42.528Z,8.78
2019-04-22T00:19:38.873Z,7.83
2019-04-22T00:21:55.757Z,6.70
2019-04-22T00:24:17.374Z,7.25
2019-04-22T00:26:44.390Z,7.37
2019-04-22T00:29:12.658Z,6.72
2019-04-22T00:31:26.894Z,6.65
2019-04-22T00:33:53.234Z,6.78
2019-04-22T00:36:16.547Z,7.30
2019-04-22T00:38:38.738Z,6.40
2019-04-22T00:41:05.880Z,6.50
2019-04-22T00:43:24.351Z,5.08
2019-04-22T00:45:49.235Z,5.97
2019-04-22T00:48:16.656Z,6.65
2019-04-22T00:50:37.445Z,6.65
2019-04-22T00:53:04.365Z,7.05
2019-04-22T00:55:29.202Z,6.10
2019-04-22T00:57:46.206Z,6.70
2019-04-22T01:00:13.329Z,5.22
2019-04-22T01:02:34.589Z,6.40
2019-04-22T01:05:02.079Z,6.00
2019-04-22T01:07:17.640Z,7.10
2019-04-22T01:09:49.841Z,6.62
2019-04-22T01:12:08.726Z,7.62
2019-04-22T01:14:28.379Z,7.75
2019-04-22T01:16:53.761Z,7.92
2019-04-22T01:19:19.836Z,7.83
2019-04-22T01:21:40.281Z,7.87
2019-04-22T01:23:59.777Z,8.70
2019-04-22T01:26:21.549Z,6.15
2019-04-22T01:28:39.922Z,7.37
2019-04-22T01:30:59.350Z,7.87
2019-04-22T01:33:23.730Z,8.00
2019-04-22T01:36:00.429Z,7.15
2019-04-22T01:38:18.927Z,6.22
2019-04-22T01:40:52.839Z,7.05
2019-04-22T01:43:20.223Z,7.25
2019-04-22T01:45:54.693Z,7.37
2019-04-22T01:48:00.611Z,6.87
2019-04-22T01:50:29.279Z,7.17
2019-04-22T01:52:52.059Z,5.75
2019-04-22T01:55:22.605Z,6.15
2019-04-22T01:57:32.027Z,6.85
2019-04-22T01:59:48.799Z,6.75
2019-04-22T02:02:22.173Z,7.03
2019-04-22T02:04:50.192Z,7.33
2019-04-22T02:07:09.649Z,6.92
2019-04-22T02:12:04.641Z,6.60
2019-04-22T02:14:23.488Z,6.65
2019-04-22T02:16:41.290Z,6.75
2019-04-22T02:19:11.629Z,7.10
2019-04-22T02:21:31.019Z,6.55
2019-04-22T02:26:18.992Z,6.90
2019-04-22T02:28:39.969Z,7.35
2019-04-22T02:36:18.651Z,7.40
2019-04-22T02:38:34.858Z,6.85
2019-04-22T02:41:06.766Z,6.50
2019-04-22T02:45:46.844Z,6.47
2019-04-22T02:47:59.306Z,6.55
2019-04-22T02:50:15.709Z,7.40
2019-04-22T02:52:42.981Z,6.42
2019-04-22T02:57:39.707Z,6.60
2019-04-22T02:59:57.374Z,5.33
2019-04-22T03:02:19.604Z,6.45
2019-04-22T03:04:37.459Z,6.17
2019-04-22T03:06:45.971Z,6.65
2019-04-22T03:09:25.531Z,6.17
2019-04-22T03:11:56.627Z,6.75
2019-04-22T03:14:22.884Z,6.47
2019-04-22T03:21:18.590Z,7.67
2019-04-22T03:24:01.637Z,7.97
2019-04-22T03:28:44.395Z,8.03
2019-04-22T03:31:36.913Z,7.75
2019-04-22T03:36:05.304Z,7.53
2019-04-22T03:38:41.496Z,7.20
2019-04-22T03:40:52.840Z,7.55
2019-04-22T03:43:14.041Z,5.85
2019-04-22T03:45:34.029Z,8.38
2019-04-22T03:52:59.681Z,7.50
2019-04-22T03:57:49.253Z,8.30
2019-04-22T03:59:56.983Z,8.25
2019-04-22T04:02:31.725Z,7.87
2019-04-22T04:04:47.490Z,7.53
2019-04-22T04:07:34.777Z,6.87
2019-04-22T04:11:59.982Z,7.47
2019-04-22T04:16:49.995Z,8.23
2019-04-22T04:21:43.619Z,7.92
2019-04-22T04:24:29.598Z,7.22
2019-04-22T04:26:30.735Z,8.08
2019-04-22T04:28:58.040Z,7.92
2019-04-22T04:31:02.663Z,7.62
2019-04-22T04:33:23.342Z,7.92
2019-04-22T04:37:58.812Z,5.42
2019-04-22T04:40:37.371Z,7.00
2019-04-22T04:45:40.970Z,6.78
2019-04-22T05:00:11.141Z,6.20
2019-04-22T05:02:09.392Z,4.33
2019-04-22T05:11:51.965Z,6.75
2019-04-22T05:14:19.184Z,6.85
2019-04-22T05:18:54.689Z,6.08
2019-04-22T05:21:16.458Z,7.30
2019-04-22T05:23:40.085Z,7.57
2019-04-22T05:25:57.899Z,7.30
2019-04-22T05:28:20.510Z,7.35
2019-04-22T05:30:46.042Z,6.37
2019-04-22T05:33:09.000Z,7.85
2019-04-22T05:35:31.222Z,9.93
2019-04-22T05:38:02.738Z,9.53
2019-04-22T05:40:24.371Z,8.03
2019-04-22T05:42:44.179Z,7.83
2019-04-22T05:45:10.170Z,6.83
2019-04-22T05:47:28.851Z,9.90
2019-04-22T05:49:48.082Z,7.70
2019-04-22T05:52:14.940Z,7.47
2019-04-22T05:54:38.986Z,6.70
2019-04-22T05:57:11.041Z,6.20
2019-04-22T05:59:34.417Z,6.00
2019-04-22T06:01:59.794Z,6.60
2019-04-22T06:04:42.548Z,7.22
2019-04-22T06:06:53.847Z,6.65
2019-04-22T06:09:24.357Z,6.12
2019-04-22T06:11:36.290Z,5.85
2019-04-22T06:14:00.927Z,6.45
2019-04-22T06:16:35.103Z,6.83
2019-04-22T06:18:56.434Z,8.40
2019-04-22T06:21:18.681Z,7.65
2019-04-22T06:23:46.864Z,6.83
2019-04-22T06:28:38.752Z,5.30
2019-04-22T06:30:57.510Z,6.30
2019-04-22T06:38:28.574Z,6.97
2019-04-22T06:40:26.023Z,7.60
2019-04-22T06:42:56.529Z,6.83
2019-04-22T06:45:15.169Z,4.67
2019-04-22T06:47:55.993Z,7.42
2019-04-22T06:50:07.576Z,7.43
2019-04-22T06:52:22.840Z,7.17
2019-04-22T06:54:54.300Z,6.50
2019-04-22T06:57:11.622Z,7.67
2019-04-22T06:59:40.269Z,6.87
2019-04-22T07:02:04.843Z,6.78
2019-04-22T07:04:22.262Z,6.42
2019-04-22T07:11:29.595Z,6.92
2019-04-22T07:14:01.793Z,6.50
2019-04-22T07:16:26.231Z,6.55
2019-04-22T07:19:01.799Z,6.90
2019-04-22T07:21:05.940Z,4.93
2019-04-22T07:23:35.005Z,6.25
2019-04-22T07:25:52.173Z,7.00
2019-04-22T07:28:15.696Z,7.08
2019-04-22T07:30:39.424Z,6.55
2019-04-22T07:35:36.265Z,6.47
2019-04-22T07:37:55.601Z,7.22
2019-04-22T07:40:16.855Z,6.25
2019-04-22T07:42:44.053Z,7.05
2019-04-22T07:45:28.133Z,6.40
2019-04-22T07:47:36.029Z,6.75
2019-04-22T07:49:50.822Z,7.07
2019-04-22T07:52:20.303Z,5.67
2019-04-22T07:54:43.407Z,7.08
2019-04-22T07:57:10.212Z,6.50
2019-04-22T07:59:32.144Z,5.83
2019-04-22T08:01:53.647Z,7.00
2019-04-22T08:04:23.155Z,6.50
2019-04-22T08:06:43.784Z,5.50
2019-04-22T08:09:11.484Z,6.10
2019-04-22T08:11:37.606Z,6.15
2019-04-22T08:13:47.436Z,6.00
2019-04-22T08:16:10.319Z,6.70
2019-04-22T08:18:34.376Z,5.80
2019-04-22T08:20:58.451Z,6.12
2019-04-22T08:23:23.867Z,5.47
2019-04-22T08:25:45.848Z,6.40
2019-04-22T08:28:14.222Z,6.20
2019-04-22T08:30:44.550Z,6.63
2019-04-22T08:33:04.783Z,6.28
2019-04-22T08:35:38.310Z,5.42
2019-04-22T08:40:15.422Z,6.10
2019-04-22T08:42:43.213Z,5.70
2019-04-22T08:47:27.748Z,6.25
2019-04-22T08:52:08.688Z,4.72
2019-04-22T08:54:33.971Z,5.13
2019-04-22T09:01:38.069Z,5.63
2019-04-22T09:04:04.037Z,5.35
2019-04-22T09:08:56.910Z,4.85
2019-04-22T09:11:16.054Z,4.87
2019-04-22T09:13:35.490Z,5.00
2019-04-22T09:16:08.884Z,4.90
2019-04-22T09:18:24.697Z,5.05
2019-04-22T09:20:51.466Z,4.83
2019-04-22T09:23:14.985Z,3.98
2019-04-22T09:25:34.556Z,5.00
2019-04-22T09:27:57.824Z,5.47
2019-04-22T09:30:20.431Z,5.87
2019-04-22T09:32:44.928Z,6.03
2019-04-22T09:35:02.715Z,6.00
2019-04-22T09:37:34.905Z,5.83
2019-04-22T09:40:01.111Z,5.72
2019-04-22T09:42:17.452Z,6.65
2019-04-22T09:44:40.201Z,5.85
2019-04-22T09:47:00.338Z,4.75
2019-04-22T09:49:26.621Z,6.28
2019-04-22T09:51:54.016Z,5.95
2019-04-22T09:54:18.906Z,6.83
2019-04-22T09:56:37.433Z,5.97
2019-04-22T09:59:13.962Z,6.15
2019-04-22T10:01:38.885Z,6.53
2019-04-22T10:03:51.686Z,5.77
2019-04-22T10:06:16.512Z,6.17
2019-04-22T10:08:40.734Z,6.67
2019-04-22T10:11:04.696Z,5.67
2019-04-22T10:13:32.332Z,6.40
2019-04-22T10:15:46.833Z,6.60
2019-04-22T10:18:09.750Z,5.83
2019-04-22T10:20:32.789Z,6.93
2019-04-22T10:22:59.234Z,6.87
2019-04-22T10:25:18.208Z,7.15
2019-04-22T10:27:51.435Z,7.57
2019-04-22T10:30:03.103Z,6.62
2019-04-22T10:32:33.500Z,6.42
2019-04-22T10:34:44.026Z,6.17
2019-04-22T10:37:04.423Z,7.53
2019-04-22T10:39:35.699Z,7.10
2019-04-22T10:41:46.523Z,6.50
2019-04-22T10:44:08.855Z,6.85
2019-04-22T10:46:30.501Z,6.72
2019-04-22T10:48:52.779Z,6.90
2019-04-22T10:51:14.799Z,6.45
2019-04-22T10:53:37.544Z,6.85
2019-04-22T10:55:59.259Z,6.62
2019-04-22T10:58:21.063Z,6.83
2019-04-22T11:00:45.259Z,6.22
2019-04-22T11:03:08.343Z,6.05
2019-04-22T11:05:32.345Z,5.50
2019-04-22T11:07:57.934Z,5.17
2019-04-22T11:10:33.568Z,5.55
2019-04-22T11:12:47.128Z,5.55
2019-04-22T11:15:09.836Z,5.83
2019-04-22T11:17:31.621Z,5.55
2019-04-22T11:19:53.335Z,5.05
2019-04-22T11:22:20.643Z,5.08
2019-04-22T11:24:38.899Z,5.72
2019-04-22T11:27:01.109Z,5.30
2019-04-22T11:29:23.732Z,5.80
2019-04-22T11:31:46.467Z,6.55
2019-04-22T11:34:08.923Z,5.78
2019-04-22T11:36:32.525Z,6.75
2019-04-22T11:39:00.336Z,5.83
2019-04-22T11:41:17.472Z,5.55
2019-04-22T11:43:39.179Z,5.95
2019-04-22T11:46:01.017Z,6.05
2019-04-22T11:48:23.524Z,5.70
2019-04-22T11:50:46.165Z,5.70
2019-04-22T11:53:08.891Z,5.70
2019-04-22T11:55:31.080Z,5.60
2019-04-22T11:57:53.985Z,6.05
2019-04-22T12:00:18.728Z,6.08
2019-04-22T12:02:40.946Z,5.75
2019-04-22T12:05:07.956Z,6.05
2019-04-22T12:07:32.950Z,5.83
2019-04-22T12:09:53.416Z,5.57
2019-04-22T12:12:15.974Z,5.78
2019-04-22T12:14:38.239Z,5.78
2019-04-22T12:17:01.454Z,5.87
2019-04-22T12:19:29.404Z,5.25
2019-04-22T12:21:51.272Z,5.58
2019-04-22T12:24:13.220Z,5.60
2019-04-22T12:26:34.797Z,5.97
2019-04-22T12:28:57.276Z,5.70
2019-04-22T12:31:19.561Z,5.80
2019-04-22T12:33:41.618Z,5.12
2019-04-22T12:36:04.630Z,5.42
2019-04-22T12:38:27.404Z,5.40
2019-04-22T12:40:55.308Z,5.20
2019-04-22T12:43:14.304Z,5.72
2019-04-22T12:45:36.342Z,5.63
2019-04-22T12:47:57.969Z,5.45
2019-04-22T12:50:26.260Z,6.40
2019-04-22T12:52:50.552Z,5.87
2019-04-22T12:55:07.895Z,5.03
2019-04-22T12:57:30.269Z,5.97
2019-04-22T12:59:53.260Z,5.70
2019-04-22T13:02:15.469Z,5.53
2019-04-22T13:04:38.492Z,5.95
2019-04-22T13:07:01.741Z,6.30
2019-04-22T13:09:23.569Z,5.90
2019-04-22T13:11:45.947Z,5.87
2019-04-22T13:14:08.957Z,6.35
2019-04-22T13:16:31.326Z,7.12
2019-04-22T13:18:58.726Z,6.15
2019-04-22T13:21:16.393Z,7.23
2019-04-22T13:23:39.015Z,6.40
2019-04-22T13:26:01.146Z,6.35
2019-04-22T13:28:23.101Z,6.22
2019-04-22T13:30:46.412Z,5.87
2019-04-22T13:33:07.979Z,7.43
2019-04-22T13:35:29.815Z,5.35
2019-04-22T13:37:52.941Z,6.33
2019-04-22T13:40:15.153Z,6.53
2019-04-22T13:42:38.091Z,7.12
2019-04-22T13:45:00.148Z,5.15
2019-04-22T13:47:34.868Z,7.80
2019-04-22T13:50:17.647Z,6.80
2019-04-22T13:52:51.144Z,6.87
2019-04-22T13:54:58.486Z,7.95
2019-04-22T13:57:09.100Z,6.73
2019-04-22T13:59:26.728Z,7.28
2019-04-22T14:01:48.315Z,6.17
2019-04-22T14:04:12.498Z,7.90
2019-04-22T14:06:34.697Z,7.92
2019-04-22T14:08:56.273Z,6.92
2019-04-22T14:11:27.693Z,7.28
2019-04-22T14:13:41.905Z,7.70
2019-04-22T14:16:04.770Z,6.22
2019-04-22T14:18:26.462Z,7.37
2019-04-22T14:20:49.201Z,6.87
2019-04-22T14:23:12.331Z,6.97
2019-04-22T14:25:34.636Z,6.67
2019-04-22T14:28:01.836Z,6.78
2019-04-22T14:30:20.773Z,6.92
2019-04-22T14:32:43.996Z,6.90
2019-04-22T14:35:07.037Z,6.47
2019-04-22T14:37:29.876Z,6.22
2019-04-22T14:39:51.747Z,6.87
2019-04-22T14:42:34.383Z,5.67
2019-04-22T14:47:27.900Z,5.83
2019-04-22T14:49:47.365Z,5.93
2019-04-22T14:52:13.113Z,5.83
2019-04-22T14:54:26.462Z,4.75
2019-04-22T14:56:34.169Z,5.00
2019-04-22T14:58:56.574Z,5.00
2019-04-22T15:01:19.074Z,4.78
2019-04-22T15:03:44.071Z,4.97
2019-04-22T15:06:04.550Z,4.75
2019-04-22T15:08:26.895Z,5.20
2019-04-22T15:10:49.728Z,5.03
2019-04-22T15:13:11.720Z,4.40
2019-04-22T15:15:40.543Z,4.87
2019-04-22T15:18:06.258Z,4.60
2019-04-22T15:20:39.656Z,4.83
2019-04-22T15:23:02.389Z,5.55
2019-04-22T15:25:24.001Z,5.47
2019-04-22T15:27:45.903Z,5.28
2019-04-22T15:30:07.831Z,5.50
2019-04-22T15:32:29.607Z,5.35
2019-04-22T15:34:51.379Z,6.20
2019-04-22T15:37:13.967Z,6.00
2019-04-22T15:39:36.360Z,5.90
2019-04-22T15:42:11.364Z,6.12
2019-04-22T15:44:28.109Z,6.47
2019-04-22T15:46:50.868Z,5.00
2019-04-22T15:49:13.801Z,6.58
2019-04-22T15:51:36.920Z,5.83
2019-04-22T15:53:58.508Z,5.83
2019-04-22T15:56:21.103Z,6.03
2019-04-22T15:58:43.799Z,6.80
2019-04-22T16:01:12.915Z,5.80
2019-04-22T16:03:28.982Z,5.72
2019-04-22T16:05:52.103Z,5.72
2019-04-22T16:08:14.991Z,6.53
2019-04-22T16:10:37.929Z,6.53
2019-04-22T16:13:07.272Z,5.85
2019-04-22T16:15:24.732Z,7.45
2019-04-22T16:17:46.714Z,4.87
2019-04-22T16:20:09.122Z,5.03
2019-04-22T16:22:34.237Z,5.65
2019-04-22T16:25:15.711Z,4.75
2019-04-22T16:27:40.393Z,6.75
2019-04-22T16:30:03.659Z,6.60
2019-04-22T16:32:27.790Z,5.12
2019-04-22T16:34:49.896Z,4.75
2019-04-22T16:37:12.560Z,4.95
2019-04-22T16:39:36.512Z,4.70
2019-04-22T16:41:58.307Z,5.53
2019-04-22T16:44:20.737Z,5.40
2019-04-22T16:46:43.646Z,5.00
2019-04-22T16:49:05.672Z,4.58
2019-04-22T16:51:27.662Z,5.22
2019-04-22T16:53:49.597Z,4.92
2019-04-22T16:56:12.947Z,5.12
2019-04-22T16:58:34.910Z,5.20
2019-04-22T17:00:56.932Z,5.28
2019-04-22T17:03:20.657Z,5.17
2019-04-22T17:06:01.365Z,5.05
2019-04-22T17:08:24.574Z,5.10
2019-04-22T17:10:46.595Z,5.17
2019-04-22T17:13:13.714Z,5.22
2019-04-22T17:15:33.041Z,5.67
2019-04-22T17:17:55.207Z,3.70
2019-04-22T17:20:17.438Z,5.05
2019-04-22T17:22:39.711Z,4.40
2019-04-22T17:25:02.714Z,4.72
2019-04-22T17:27:24.485Z,5.12
2019-04-22T17:29:46.313Z,5.50
2019-04-22T17:32:11.731Z,5.20
2019-04-22T17:34:33.701Z,5.35
2019-04-22T17:36:55.237Z,5.12
2019-04-22T17:39:30.614Z,5.12
2019-04-22T17:41:59.648Z,5.03
2019-04-22T17:44:38.029Z,5.15
2019-04-22T17:46:56.090Z,5.37
2019-04-22T17:49:37.204Z,4.80
2019-04-22T17:52:17.563Z,5.22
2019-04-22T17:54:40.679Z,4.90
2019-04-22T17:57:02.113Z,4.70
2019-04-22T17:59:29.838Z,4.63
2019-04-22T18:01:46.667Z,3.95
2019-04-22T18:03:55.556Z,5.55
2019-04-22T18:06:45.374Z,5.43
2019-04-22T18:08:54.916Z,5.15
2019-04-22T18:11:29.445Z,5.47
2019-04-22T18:13:44.291Z,5.65
2019-04-22T18:16:09.580Z,5.42
2019-04-22T18:18:33.207Z,5.03
2019-04-22T18:20:50.940Z,5.40
2019-04-22T18:23:06.691Z,5.40
2019-04-22T18:25:36.354Z,6.50
2019-04-22T18:28:13.768Z,6.42
2019-04-22T18:30:20.080Z,6.72
2019-04-22T18:32:50.679Z,6.50
2019-04-22T18:35:14.146Z,7.28
2019-04-22T18:37:40.886Z,6.17
2019-04-22T18:40:01.998Z,5.97
2019-04-22T18:42:21.998Z,6.95
2019-04-22T18:44:56.010Z,5.63
2019-04-22T18:47:06.938Z,6.12
2019-04-22T18:49:33.900Z,5.87
2019-04-22T18:52:25.372Z,6.10
2019-04-22T18:55:04.471Z,5.28
2019-04-22T18:57:26.307Z,5.92
2019-04-22T18:59:36.134Z,5.90
2019-04-22T19:02:01.453Z,5.92
2019-04-22T19:04:27.031Z,5.78
2019-04-22T19:07:00.390Z,7.25
2019-04-22T19:09:38.659Z,5.83
2019-04-22T19:12:09.848Z,6.10
2019-04-22T19:14:24.849Z,5.62
2019-04-22T19:16:44.767Z,5.87
2019-04-22T19:21:33.802Z,7.30
2019-04-22T19:23:54.455Z,6.62
2019-04-22T19:26:30.797Z,7.17
2019-04-22T19:28:48.307Z,5.90
2019-04-22T19:31:09.135Z,5.73
2019-04-22T19:33:35.474Z,6.05
2019-04-22T19:35:58.246Z,6.47
2019-04-22T19:38:08.299Z,6.15
2019-04-22T19:40:50.527Z,6.55
2019-04-22T19:43:08.841Z,5.53
2019-04-22T19:45:26.545Z,6.17
2019-04-22T19:47:58.501Z,6.40
2019-04-22T19:50:16.503Z,6.12
2019-04-22T19:52:40.022Z,6.60
2019-04-22T19:55:08.977Z,5.78
2019-04-22T19:57:22.452Z,6.70
2019-04-22T20:00:05.124Z,6.03
2019-04-22T20:02:40.972Z,6.33
2019-04-22T20:05:11.122Z,6.37
2019-04-22T20:07:39.507Z,6.72
2019-04-22T20:10:04.685Z,6.35
2019-04-22T20:12:24.688Z,6.47
2019-04-22T20:14:51.104Z,6.53
2019-04-22T20:17:19.734Z,6.85
2019-04-22T20:19:47.956Z,6.33
2019-04-22T20:22:03.122Z,7.13
2019-04-22T20:24:12.918Z,5.20
2019-04-22T20:26:49.987Z,5.58
2019-04-22T20:29:11.718Z,6.57
2019-04-22T20:31:37.862Z,6.80
2019-04-22T20:34:03.383Z,6.83
2019-04-22T20:36:39.457Z,6.25
2019-04-22T20:38:46.667Z,7.12
2019-04-22T20:41:05.631Z,6.50
2019-04-22T20:46:03.119Z,7.90
2019-04-22T20:48:09.220Z,7.30
2019-04-22T20:50:41.765Z,7.28
2019-04-22T20:53:11.757Z,7.87
2019-04-22T20:55:25.522Z,7.62
2019-04-22T20:57:56.107Z,6.85
2019-04-22T21:00:11.669Z,8.43
2019-04-22T21:02:32.346Z,7.80
2019-04-22T21:04:53.864Z,10.32
2019-04-22T21:07:24.306Z,9.85
2019-04-22T21:09:49.307Z,7.15
2019-04-22T21:12:12.478Z,5.93
2019-04-22T21:14:36.109Z,6.70
2019-04-22T21:17:00.701Z,8.08
2019-04-22T21:19:28.035Z,7.50
2019-04-22T21:21:54.672Z,7.30
2019-04-22T21:24:03.133Z,7.17
2019-04-22T21:26:29.366Z,8.05
2019-04-22T21:28:54.057Z,7.50
2019-04-22T21:31:24.850Z,7.47
2019-04-22T21:33:44.486Z,8.03
2019-04-22T21:36:13.774Z,7.53
2019-04-22T21:38:34.231Z,7.70
2019-04-22T21:40:47.360Z,7.20
2019-04-22T21:43:19.944Z,6.53
2019-04-22T21:45:31.014Z,7.70
2019-04-22T21:48:11.545Z,7.22
2019-04-22T21:50:43.072Z,6.65
2019-04-22T21:52:59.483Z,7.05
2019-04-22T21:55:16.129Z,8.07
2019-04-22T21:57:40.044Z,7.37
2019-04-22T22:00:06.502Z,8.13
2019-04-22T22:02:28.257Z,7.55
2019-04-22T22:04:44.613Z,5.57
2019-04-22T22:06:59.903Z,7.53
2019-04-22T22:09:37.946Z,7.85
2019-04-22T22:11:53.996Z,7.17
2019-04-22T22:14:16.916Z,8.33
2019-04-22T22:16:38.396Z,7.80
2019-04-22T22:19:11.758Z,8.28
2019-04-22T22:21:42.093Z,7.43
2019-04-22T22:24:01.360Z,7.67
2019-04-22T22:26:15.625Z,8.30
2019-04-22T22:28:52.213Z,5.60
2019-04-22T22:31:14.838Z,6.92
2019-04-22T22:33:57.685Z,8.23
2019-04-22T22:36:12.027Z,8.00
2019-04-22T22:38:32.950Z,7.45
2019-04-22T22:40:43.264Z,8.43
2019-04-22T22:43:11.804Z,7.95
2019-04-22T22:45:33.680Z,7.67
2019-04-22T22:48:16.346Z,9.05
2019-04-22T22:50:30.329Z,9.00
2019-04-22T22:53:10.383Z,8.93
2019-04-22T22:55:21.717Z,9.13
2019-04-22T22:57:44.281Z,8.78
2019-04-22T23:00:08.499Z,8.80
2019-04-22T23:02:34.051Z,9.05
2019-04-22T23:04:59.471Z,6.77
2019-04-22T23:07:26.991Z,9.35
2019-04-22T23:09:47.861Z,8.38
2019-04-22T23:12:13.257Z,8.48
2019-04-22T23:14:26.773Z,6.58
2019-04-22T23:16:40.877Z,9.58
2019-04-22T23:19:05.118Z,10.00
2019-04-22T23:21:32.852Z,7.92
2019-04-22T23:24:04.358Z,9.88
2019-04-22T23:26:29.829Z,9.80
2019-04-22T23:28:53.121Z,9.48
2019-04-22T23:31:14.314Z,10.30
2019-04-22T23:33:49.454Z,10.08
2019-04-22T23:36:12.282Z,9.68
2019-04-22T23:38:49.006Z,10.20
2019-04-22T23:41:05.701Z,10.70
2019-04-22T23:43:34.212Z,10.35
2019-04-22T23:45:56.644Z,10.50
2019-04-22T23:48:13.069Z,10.08
2019-04-22T23:50:48.009Z,10.45
2019-04-22T23:53:11.515Z,9.58
2019-04-22T23:55:35.412Z,10.40
2019-04-22T23:57:57.024Z,10.25
